Terminal Aerodrome Forecast
Issued by NWS

Current Version | Previous Version | Text Only | Print | Product List | Glossary Off
Versions: 1 2 3 4 5 6 7 8 9 10 11 12 13 14 15 16 17 18 19

088
FTUS41 KPBZ 131724
TAFMGW
TAF
KMGW 131724Z 1318/1418 30010G18KT P6SM VCSH SCT025 BKN040
      TEMPO 1318/1321 5SM -SHSN BKN025 OVC040
     FM140000 28008KT P6SM BKN040
     FM140500 26005KT P6SM SCT040
     FM141400 VRB04KT P6SM SCT040 BKN250=

USA.gov is the U.S. government's official web portal to all federal, state and local government web resources and services.